Time,TemperatureF,DewpointF,PressureIn,WindDirection,WindDirectionDegrees,WindSpeedMPH,WindSpeedGustMPH,Humidity,HourlyPrecipIn,Conditions,Clouds,dailyrainin,SoftwareType,DateUTC
2013-03-19 00:00:00,32.5,24.5,29.82,West,279,21.2,23.0,72,0.00,,OVC022,0.14,VWS V14.01,2013-03-19 04:00:00,
2013-03-19 00:01:00,32.5,24.5,29.81,West,273,19.2,23.0,72,0.00,,FEW036,0.14,VWS V14.01,2013-03-19 04:01:00,
2013-03-19 00:02:00,32.4,24.4,29.81,WNW,298,13.2,23.0,72,0.00,,FEW036,0.14,VWS V14.01,2013-03-19 04:02:00,
2013-03-19 00:07:00,32.1,23.8,29.82,West,268,18.2,24.0,71,0.00,,FEW036,0.00,VWS V14.01,2013-03-19 04:07:00,
2013-03-19 00:12:00,31.7,22.7,29.82,WSW,250,22.2,22.2,69,0.01,,FEW036,0.01,VWS V14.01,2013-03-19 04:12:00,
2013-03-19 00:17:00,31.3,22.3,29.82,WSW,257,18.2,24.0,69,0.01,,FEW036,0.01,VWS V14.01,2013-03-19 04:17:00,
2013-03-19 00:22:00,30.9,21.2,29.82,West,273,17.2,22.0,67,0.01,,FEW036,0.01,VWS V14.01,2013-03-19 04:22:00,
2013-03-19 00:27:00,30.5,21.2,29.82,WNW,286,19.2,23.0,68,0.01,,FEW036,0.01,VWS V14.01,2013-03-19 04:27:00,
2013-03-19 00:32:00,30.2,20.9,29.82,West,277,23.2,23.2,68,0.01,,FEW036,0.01,VWS V14.01,2013-03-19 04:32:00,
2013-03-19 00:37:00,29.8,20.5,29.83,WNW,282,17.2,26.0,68,0.01,,FEW036,0.01,VWS V14.01,2013-03-19 04:37:00,
2013-03-19 00:42:00,29.6,20.4,29.83,West,278,20.2,20.2,68,0.01,,FEW036,0.01,VWS V14.01,2013-03-19 04:42:00,
2013-03-19 00:47:00,29.3,20.1,29.83,West,277,19.2,30.0,68,0.01,,FEW036,0.01,VWS V14.01,2013-03-19 04:47:00,
2013-03-19 00:52:00,29.1,20.2,29.83,West,261,14.2,16.0,69,0.01,,FEW036,0.01,VWS V14.01,2013-03-19 04:52:00,
2013-03-19 00:57:00,28.9,20.0,29.83,West,278,16.2,25.0,69,0.01,,FEW036,0.01,VWS V14.01,2013-03-19 04:57:00,
2013-03-19 01:02:00,28.9,19.7,29.83,West,264,20.2,22.0,68,0.01,,CLR,0.01,VWS V14.01,2013-03-19 05:02:00,
2013-03-19 01:07:00,28.7,19.1,29.83,West,276,20.2,30.0,67,0.01,,CLR,0.01,VWS V14.01,2013-03-19 05:07:00,
2013-03-19 01:12:00,28.5,19.0,29.83,West,263,21.2,26.0,67,0.00,,CLR,0.01,VWS V14.01,2013-03-19 05:12:00,
2013-03-19 01:17:00,28.3,18.4,29.83,West,272,12.2,26.0,66,0.00,,CLR,0.01,VWS V14.01,2013-03-19 05:17:00,
2013-03-19 01:22:00,28.1,18.2,29.83,West,271,16.2,24.0,66,0.00,,CLR,0.01,VWS V14.01,2013-03-19 05:22:00,
2013-03-19 01:27:00,27.9,18.0,29.83,West,263,24.2,35.0,66,0.00,,CLR,0.01,VWS V14.01,2013-03-19 05:27:00,
2013-03-19 01:32:00,27.6,18.1,29.83,West,262,20.2,20.2,67,0.00,,CLR,0.01,VWS V14.01,2013-03-19 05:32:00,
2013-03-19 01:37:00,27.4,18.2,29.83,WSW,253,16.2,25.0,68,0.00,,CLR,0.01,VWS V14.01,2013-03-19 05:37:00,
2013-03-19 01:42:00,27.1,18.0,29.83,West,264,16.2,18.0,68,0.00,,CLR,0.01,VWS V14.01,2013-03-19 05:42:00,
2013-03-19 01:47:00,26.9,17.8,29.83,West,264,13.2,21.0,68,0.00,,CLR,0.01,VWS V14.01,2013-03-19 05:47:00,
2013-03-19 01:52:00,26.8,17.7,29.83,West,275,20.2,22.0,68,0.00,,CLR,0.01,VWS V14.01,2013-03-19 05:52:00,
2013-03-19 01:57:00,26.8,18.0,29.83,West,276,17.2,24.0,69,0.00,,CLR,0.01,VWS V14.01,2013-03-19 05:57:00,
2013-03-19 02:02:00,26.8,18.0,29.83,WSW,254,22.2,22.2,69,0.00,,BKN026,0.01,VWS V14.01,2013-03-19 06:02:00,
2013-03-19 02:07:00,26.9,18.1,29.83,West,270,10.2,23.0,69,0.00,,BKN026,0.01,VWS V14.01,2013-03-19 06:07:00,
2013-03-19 02:12:00,26.9,18.1,29.83,WNW,291,16.2,18.0,69,0.00,,BKN026,0.01,VWS V14.01,2013-03-19 06:12:00,
2013-03-19 02:17:00,27.0,18.5,29.84,West,267,12.2,19.0,70,0.00,,BKN026,0.01,VWS V14.01,2013-03-19 06:17:00,
2013-03-19 02:22:00,27.0,18.9,29.84,West,268,13.2,22.0,71,0.00,,BKN026,0.01,VWS V14.01,2013-03-19 06:22:00,
2013-03-19 02:27:00,27.0,18.9,29.84,West,260,15.2,22.0,71,0.00,,BKN026,0.01,VWS V14.01,2013-03-19 06:27:00,
2013-03-19 02:32:00,26.9,18.8,29.84,West,267,13.2,14.0,71,0.00,,BKN026,0.01,VWS V14.01,2013-03-19 06:32:00,
2013-03-19 02:37:00,26.9,18.8,29.84,West,265,11.2,18.0,71,0.00,,BKN026,0.01,VWS V14.01,2013-03-19 06:37:00,
2013-03-19 02:43:00,26.9,18.8,29.84,West,279,15.2,22.0,71,0.00,,BKN026,0.01,VWS V14.01,2013-03-19 06:43:00,
2013-03-19 02:48:00,26.9,19.1,29.85,West,271,12.2,22.0,72,0.00,,BKN026,0.01,VWS V14.01,2013-03-19 06:48:00,
2013-03-19 02:53:00,26.8,19.0,29.85,West,262,13.2,20.0,72,0.00,,BKN026,0.01,VWS V14.01,2013-03-19 06:53:00,
2013-03-19 02:58:00,26.7,19.2,29.85,WSW,252,22.2,23.0,73,0.00,,BKN026,0.01,VWS V14.01,2013-03-19 06:58:00,
2013-03-19 03:03:00,26.6,19.1,29.85,West,260,16.2,23.0,73,0.00,,OVC019,0.01,VWS V14.01,2013-03-19 07:03:00,
2013-03-19 03:08:00,26.5,19.4,29.85,West,266,20.2,23.0,74,0.00,,OVC019,0.01,VWS V14.01,2013-03-19 07:08:00,
2013-03-19 03:13:00,26.4,18.9,29.86,WNW,288,21.2,21.2,73,0.00,,OVC019,0.01,VWS V14.01,2013-03-19 07:13:00,
2013-03-19 03:18:00,26.1,18.3,29.86,WNW,282,12.2,25.0,72,0.00,,OVC019,0.01,VWS V14.01,2013-03-19 07:18:00,
2013-03-19 03:23:00,26.0,18.2,29.86,West,281,12.2,18.0,72,0.00,,OVC019,0.01,VWS V14.01,2013-03-19 07:23:00,
2013-03-19 03:28:00,25.8,17.4,29.87,West,269,15.2,21.0,70,0.00,,OVC019,0.01,VWS V14.01,2013-03-19 07:28:00,
2013-03-19 03:33:00,25.6,16.9,29.86,West,279,20.2,24.0,69,0.00,,OVC019,0.01,VWS V14.01,2013-03-19 07:33:00,
2013-03-19 03:38:00,25.5,16.4,29.87,West,275,17.2,25.0,68,0.00,,OVC019,0.01,VWS V14.01,2013-03-19 07:38:00,
2013-03-19 03:43:00,25.4,16.7,29.86,West,267,13.2,16.0,69,0.00,,OVC019,0.01,VWS V14.01,2013-03-19 07:43:00,
2013-03-19 03:48:00,25.3,16.9,29.86,West,276,16.2,23.0,70,0.00,,OVC019,0.01,VWS V14.01,2013-03-19 07:48:00,
2013-03-19 03:53:00,25.3,17.2,29.87,WNW,282,21.2,21.2,71,0.00,,OVC019,0.01,VWS V14.01,2013-03-19 07:53:00,
2013-03-19 03:58:00,25.1,16.7,29.86,West,275,19.2,26.0,70,0.00,,OVC019,0.01,VWS V14.01,2013-03-19 07:58:00,
2013-03-19 04:03:00,25.0,16.3,29.87,West,281,15.2,23.0,69,0.00,,OVC030,0.01,VWS V14.01,2013-03-19 08:03:00,
2013-03-19 04:08:00,25.0,16.3,29.87,WSW,252,20.2,23.0,69,0.00,,OVC030,0.01,VWS V14.01,2013-03-19 08:08:00,
2013-03-19 04:13:00,24.9,15.5,29.87,West,271,13.2,24.0,67,0.00,,OVC030,0.01,VWS V14.01,2013-03-19 08:13:00,
2013-03-19 04:18:00,24.8,15.4,29.87,West,272,5.2,25.0,67,0.00,,OVC030,0.01,VWS V14.01,2013-03-19 08:18:00,
2013-03-19 04:23:00,24.8,15.4,29.88,West,263,13.2,19.0,67,0.00,,OVC030,0.01,VWS V14.01,2013-03-19 08:23:00,
2013-03-19 04:28:00,24.6,14.9,29.88,WNW,284,16.2,19.0,66,0.00,,OVC030,0.01,VWS V14.01,2013-03-19 08:28:00,
2013-03-19 04:33:00,24.6,14.9,29.88,West,272,10.2,14.0,66,0.00,,OVC030,0.01,VWS V14.01,2013-03-19 08:33:00,
2013-03-19 04:39:00,24.6,15.2,29.87,West,265,8.2,20.0,67,0.00,,OVC030,0.01,VWS V14.01,2013-03-19 08:39:00,
2013-03-19 04:44:00,24.6,15.6,29.87,West,276,14.2,15.0,68,0.00,,OVC030,0.01,VWS V14.01,2013-03-19 08:44:00,
2013-03-19 04:49:00,24.5,15.1,29.87,West,271,8.2,17.0,67,0.00,,OVC030,0.01,VWS V14.01,2013-03-19 08:49:00,
2013-03-19 04:54:00,24.6,15.6,29.86,West,273,16.2,17.0,68,0.00,,OVC030,0.01,VWS V14.01,2013-03-19 08:54:00,
2013-03-19 04:59:00,24.6,16.2,29.86,West,259,13.2,17.0,70,0.00,,OVC030,0.01,VWS V14.01,2013-03-19 08:59:00,
2013-03-19 05:04:00,24.7,16.0,29.86,West,261,17.2,24.0,69,0.00,,OVC028,0.01,VWS V14.01,2013-03-19 09:04:00,
2013-03-19 05:09:00,24.7,15.3,29.86,West,259,14.2,24.0,67,0.00,,OVC028,0.01,VWS V14.01,2013-03-19 09:09:00,
2013-03-19 05:14:00,24.7,15.7,29.87,West,260,14.2,19.0,68,0.00,,OVC028,0.01,VWS V14.01,2013-03-19 09:14:00,
2013-03-19 05:19:00,24.7,15.7,29.87,West,267,10.2,19.0,68,0.00,,OVC028,0.01,VWS V14.01,2013-03-19 09:19:00,
2013-03-19 05:24:00,24.6,15.6,29.87,West,260,11.2,19.0,68,0.00,,OVC028,0.01,VWS V14.01,2013-03-19 09:24:00,
2013-03-19 05:29:00,24.6,15.2,29.88,WSW,257,16.2,24.0,67,0.00,,OVC028,0.01,VWS V14.01,2013-03-19 09:29:00,
2013-03-19 05:34:00,24.6,14.9,29.88,West,267,13.2,26.0,66,0.00,,OVC028,0.01,VWS V14.01,2013-03-19 09:34:00,
2013-03-19 05:39:00,24.5,14.4,29.89,West,271,20.2,28.0,65,0.00,,OVC028,0.01,VWS V14.01,2013-03-19 09:39:00,
2013-03-19 05:44:00,24.4,14.3,29.90,WSW,256,16.2,27.0,65,0.00,,OVC028,0.01,VWS V14.01,2013-03-19 09:44:00,
2013-03-19 05:49:00,24.2,14.1,29.89,WSW,253,17.2,29.0,65,0.00,,OVC028,0.01,VWS V14.01,2013-03-19 09:49:00,
2013-03-19 05:54:00,24.0,14.0,29.89,West,271,15.2,23.0,65,0.00,,OVC028,0.01,VWS V14.01,2013-03-19 09:54:00,
2013-03-19 05:59:00,23.9,13.9,29.90,West,267,18.2,23.0,65,0.00,,OVC028,0.01,VWS V14.01,2013-03-19 09:59:00,
2013-03-19 06:04:00,23.8,14.5,29.90,WSW,258,15.2,23.0,67,0.00,,SCT033,0.01,VWS V14.01,2013-03-19 10:04:00,
2013-03-19 06:09:00,23.7,14.4,29.89,West,263,11.2,25.0,67,0.00,,SCT033,0.01,VWS V14.01,2013-03-19 10:09:00,
2013-03-19 06:14:00,23.6,14.3,29.90,West,275,14.2,19.0,67,0.00,,SCT033,0.01,VWS V14.01,2013-03-19 10:14:00,
2013-03-19 06:19:00,23.5,14.2,29.90,West,270,16.2,22.0,67,0.00,,SCT033,0.01,VWS V14.01,2013-03-19 10:19:00,
2013-03-19 06:24:00,23.5,13.8,29.90,West,264,20.2,25.0,66,0.00,,SCT033,0.01,VWS V14.01,2013-03-19 10:24:00,
2013-03-19 06:29:00,23.5,14.5,29.90,West,264,14.2,25.0,68,0.00,,SCT033,0.01,VWS V14.01,2013-03-19 10:29:00,
2013-03-19 06:34:00,23.4,14.4,29.90,West,267,14.2,19.0,68,0.00,,SCT033,0.01,VWS V14.01,2013-03-19 10:34:00,
2013-03-19 06:39:00,23.4,14.4,29.90,WNW,290,15.2,22.0,68,0.00,,SCT033,0.01,VWS V14.01,2013-03-19 10:39:00,
2013-03-19 06:44:00,23.6,14.6,29.90,WSW,252,17.2,22.0,68,0.00,,SCT033,0.01,VWS V14.01,2013-03-19 10:44:00,
2013-03-19 06:49:00,23.6,14.6,29.90,West,263,16.2,23.0,68,0.00,,SCT033,0.01,VWS V14.01,2013-03-19 10:49:00,
2013-03-19 06:54:00,23.6,14.6,29.90,West,265,13.2,20.0,68,0.00,,SCT033,0.01,VWS V14.01,2013-03-19 10:54:00,
2013-03-19 06:59:00,23.6,14.9,29.90,West,263,10.2,20.0,69,0.00,,SCT033,0.01,VWS V14.01,2013-03-19 10:59:00,
2013-03-19 07:04:00,23.7,15.0,29.90,West,259,17.2,20.0,69,0.00,,BKN028,0.01,VWS V14.01,2013-03-19 11:04:00,
2013-03-19 07:09:00,23.8,15.1,29.90,West,271,12.2,21.0,69,0.00,,BKN028,0.01,VWS V14.01,2013-03-19 11:09:00,
2013-03-19 07:14:00,23.9,15.2,29.91,West,272,13.2,23.0,69,0.00,,BKN028,0.01,VWS V14.01,2013-03-19 11:14:00,
2013-03-19 07:19:00,23.9,14.9,29.91,West,273,15.2,23.0,68,0.00,,BKN028,0.01,VWS V14.01,2013-03-19 11:19:00,
2013-03-19 07:24:00,23.8,14.8,29.90,West,260,11.2,23.0,68,0.00,,BKN028,0.01,VWS V14.01,2013-03-19 11:24:00,
2013-03-19 07:29:00,23.7,14.7,29.91,West,272,17.2,25.0,68,0.00,,BKN028,0.01,VWS V14.01,2013-03-19 11:29:00,
2013-03-19 07:34:00,23.6,14.6,29.90,WSW,257,10.2,23.0,68,0.00,,BKN028,0.01,VWS V14.01,2013-03-19 11:34:00,
2013-03-19 07:39:00,23.5,14.2,29.90,WSW,256,19.2,24.0,67,0.00,,BKN028,0.01,VWS V14.01,2013-03-19 11:39:00,
2013-03-19 07:44:00,23.4,14.4,29.91,West,269,11.2,22.0,68,0.00,,BKN028,0.01,VWS V14.01,2013-03-19 11:44:00,
2013-03-19 07:49:00,23.3,14.3,29.91,West,264,14.2,23.0,68,0.00,,BKN028,0.01,VWS V14.01,2013-03-19 11:49:00,
2013-03-19 07:54:00,23.2,14.6,29.91,West,259,18.2,23.0,69,0.00,,BKN028,0.01,VWS V14.01,2013-03-19 11:54:00,
2013-03-19 07:59:00,23.1,14.1,29.91,West,261,16.2,24.0,68,0.00,,BKN028,0.01,VWS V14.01,2013-03-19 11:59:00,
2013-03-19 08:04:00,23.1,14.1,29.91,West,267,10.2,15.0,68,0.00,,FEW027,0.01,VWS V14.01,2013-03-19 12:04:00,
2013-03-19 08:09:00,23.0,14.0,29.91,West,268,15.2,26.0,68,0.00,,FEW027,0.01,VWS V14.01,2013-03-19 12:09:00,
2013-03-19 08:14:00,23.1,14.1,29.91,WSW,257,18.2,18.2,68,0.00,,FEW027,0.01,VWS V14.01,2013-03-19 12:14:00,
2013-03-19 08:19:00,23.1,14.5,29.91,West,259,14.2,21.0,69,0.00,,FEW027,0.01,VWS V14.01,2013-03-19 12:19:00,
2013-03-19 08:25:00,23.2,14.9,29.91,West,259,13.2,23.0,70,0.00,,FEW027,0.01,VWS V14.01,2013-03-19 12:25:00,
2013-03-19 08:29:00,23.3,14.6,29.91,WSW,250,19.2,23.0,69,0.00,,FEW027,0.01,VWS V14.01,2013-03-19 12:29:00,
2013-03-19 08:35:00,23.5,15.2,29.91,West,269,12.2,19.0,70,0.00,,FEW027,0.01,VWS V14.01,2013-03-19 12:35:00,
2013-03-19 08:40:00,23.7,15.0,29.91,WSW,252,20.2,21.0,69,0.00,,FEW027,0.01,VWS V14.01,2013-03-19 12:40:00,
2013-03-19 08:45:00,23.9,14.9,29.91,WSW,253,21.2,25.0,68,0.00,,FEW027,0.01,VWS V14.01,2013-03-19 12:45:00,
2013-03-19 08:50:00,24.0,14.6,29.90,West,263,12.2,25.0,67,0.00,,FEW027,0.01,VWS V14.01,2013-03-19 12:50:00,
2013-03-19 08:55:00,24.0,15.0,29.91,West,261,15.2,21.0,68,0.00,,FEW027,0.01,VWS V14.01,2013-03-19 12:55:00,
2013-03-19 09:00:00,24.1,14.7,29.91,WSW,249,19.2,27.0,67,0.00,,CLR,0.01,VWS V14.01,2013-03-19 13:00:00,
2013-03-19 09:05:00,24.2,14.8,29.92,West,263,14.2,25.0,67,0.00,,CLR,0.01,VWS V14.01,2013-03-19 13:05:00,
2013-03-19 09:10:00,24.2,14.5,29.92,WSW,256,21.2,25.0,66,0.00,,CLR,0.01,VWS V14.01,2013-03-19 13:10:00,
2013-03-19 09:15:00,24.1,14.1,29.92,West,273,23.2,26.0,65,0.00,,CLR,0.01,VWS V14.01,2013-03-19 13:15:00,
2013-03-19 09:20:00,23.9,13.9,29.92,WSW,257,16.2,26.0,65,0.00,,CLR,0.01,VWS V14.01,2013-03-19 13:20:00,
2013-03-19 09:25:00,24.0,14.3,29.92,WSW,257,24.2,26.0,66,0.00,,CLR,0.01,VWS V14.01,2013-03-19 13:25:00,
2013-03-19 09:30:00,24.1,14.1,29.92,West,276,23.2,26.0,65,0.00,,CLR,0.01,VWS V14.01,2013-03-19 13:30:00,
2013-03-19 09:35:00,24.0,13.2,29.92,West,273,16.2,27.0,63,0.00,,CLR,0.01,VWS V14.01,2013-03-19 13:35:00,
2013-03-19 09:40:00,24.2,13.8,29.92,West,274,21.2,28.0,64,0.00,,CLR,0.01,VWS V14.01,2013-03-19 13:40:00,
2013-03-19 09:45:00,24.2,13.4,29.93,West,275,18.2,24.0,63,0.00,,CLR,0.01,VWS V14.01,2013-03-19 13:45:00,
2013-03-19 09:50:00,24.2,13.1,29.92,West,276,13.2,29.0,62,0.00,,CLR,0.01,VWS V14.01,2013-03-19 13:50:00,
2013-03-19 09:55:00,24.4,14.0,29.93,West,271,14.2,24.0,64,0.00,,CLR,0.01,VWS V14.01,2013-03-19 13:55:00,
2013-03-19 10:00:00,24.6,13.4,29.93,West,272,17.2,24.0,62,0.00,,CLR,0.01,VWS V14.01,2013-03-19 14:00:00,
2013-03-19 10:05:00,24.9,14.1,29.93,West,265,15.2,21.0,63,0.00,,CLR,0.01,VWS V14.01,2013-03-19 14:05:00,
2013-03-19 10:10:00,25.2,14.4,29.93,West,261,16.2,23.0,63,0.00,,CLR,0.01,VWS V14.01,2013-03-19 14:10:00,
2013-03-19 10:15:00,25.5,15.0,29.93,WSW,254,24.2,26.0,64,0.00,,CLR,0.01,VWS V14.01,2013-03-19 14:15:00,
2013-03-19 10:20:00,25.4,14.2,29.94,West,261,14.2,26.0,62,0.00,,CLR,0.01,VWS V14.01,2013-03-19 14:20:00,
2013-03-19 10:25:00,25.5,14.3,29.94,West,259,17.2,26.0,62,0.00,,CLR,0.01,VWS V14.01,2013-03-19 14:25:00,
2013-03-19 10:30:00,25.6,13.7,29.94,West,259,19.2,28.0,60,0.00,,CLR,0.01,VWS V14.01,2013-03-19 14:30:00,
2013-03-19 10:35:00,25.9,14.3,29.94,West,267,14.2,30.0,61,0.00,,CLR,0.01,VWS V14.01,2013-03-19 14:35:00,
2013-03-19 10:40:00,25.9,13.6,29.95,West,273,18.2,30.0,59,0.00,,CLR,0.01,VWS V14.01,2013-03-19 14:40:00,
2013-03-19 10:45:00,25.7,13.0,29.94,West,269,13.2,30.0,58,0.00,,CLR,0.01,VWS V14.01,2013-03-19 14:45:00,
2013-03-19 10:50:00,25.9,13.6,29.94,West,271,22.2,30.0,59,0.00,,CLR,0.01,VWS V14.01,2013-03-19 14:50:00,
2013-03-19 10:56:00,25.9,13.2,29.95,West,276,14.2,24.0,58,0.00,,CLR,0.01,VWS V14.01,2013-03-19 14:56:00,
2013-03-19 11:01:00,26.0,13.6,29.95,West,270,21.2,29.0,59,0.00,,FEW029,0.01,VWS V14.01,2013-03-19 15:01:00,
2013-03-19 11:06:00,26.1,14.5,29.95,WNW,284,14.2,25.0,61,0.00,,FEW029,0.01,VWS V14.01,2013-03-19 15:06:00,
2013-03-19 11:11:00,26.4,14.4,29.95,West,277,13.2,31.0,60,0.00,,FEW029,0.01,VWS V14.01,2013-03-19 15:11:00,
2013-03-19 11:16:00,26.0,13.3,29.94,West,272,20.2,30.0,58,0.00,,FEW029,0.01,VWS V14.01,2013-03-19 15:16:00,
2013-03-19 11:21:00,26.2,13.4,29.95,West,272,15.2,30.0,58,0.00,,FEW029,0.01,VWS V14.01,2013-03-19 15:21:00,
2013-03-19 11:26:00,26.5,14.5,29.95,WSW,256,25.2,29.0,60,0.00,,FEW029,0.01,VWS V14.01,2013-03-19 15:26:00,
2013-03-19 11:31:00,26.6,14.6,29.95,WSW,254,29.2,29.2,60,0.00,,FEW029,0.01,VWS V14.01,2013-03-19 15:31:00,
2013-03-19 11:36:00,26.8,14.8,29.94,West,264,16.2,28.0,60,0.00,,FEW029,0.01,VWS V14.01,2013-03-19 15:36:00,
2013-03-19 11:41:00,26.9,14.5,29.95,WSW,247,25.2,28.0,59,0.00,,FEW029,0.01,VWS V14.01,2013-03-19 15:41:00,
2013-03-19 11:46:00,26.8,14.0,29.96,West,267,21.2,34.0,58,0.00,,FEW029,0.01,VWS V14.01,2013-03-19 15:46:00,
2013-03-19 11:52:00,27.2,14.4,29.95,WSW,257,18.2,34.0,58,0.00,,FEW029,0.01,VWS V14.01,2013-03-19 15:52:00,
2013-03-19 11:57:00,27.6,14.4,29.96,West,267,15.2,27.0,57,0.00,,FEW029,0.01,VWS V14.01,2013-03-19 15:57:00,
2013-03-19 12:02:00,27.6,14.4,29.96,West,265,16.2,21.0,57,0.00,,SCT032,0.01,VWS V14.01,2013-03-19 16:02:00,
2013-03-19 12:07:00,27.6,15.9,29.96,WSW,256,15.2,26.0,61,0.00,,SCT032,0.01,VWS V14.01,2013-03-19 16:07:00,
2013-03-19 12:12:00,27.6,15.6,29.97,West,259,13.2,23.0,60,0.00,,SCT032,0.01,VWS V14.01,2013-03-19 16:12:00,
2013-03-19 12:17:00,27.9,16.2,29.97,West,268,18.2,25.0,61,0.00,,SCT032,0.01,VWS V14.01,2013-03-19 16:17:00,
2013-03-19 12:22:00,28.0,16.3,29.96,WSW,245,26.2,29.0,61,0.00,,SCT032,0.01,VWS V14.01,2013-03-19 16:22:00,
2013-03-19 12:27:00,28.3,15.4,29.97,West,263,16.2,29.0,58,0.00,,SCT032,0.01,VWS V14.01,2013-03-19 16:27:00,
2013-03-19 12:32:00,28.3,15.4,29.98,WSW,256,20.2,29.0,58,0.00,,SCT032,0.01,VWS V14.01,2013-03-19 16:32:00,
2013-03-19 12:37:00,28.5,16.0,29.98,West,269,26.2,29.0,59,0.00,,SCT032,0.01,VWS V14.01,2013-03-19 16:37:00,
2013-03-19 12:42:00,29.0,16.5,29.98,West,265,22.2,27.0,59,0.00,,SCT032,0.01,VWS V14.01,2013-03-19 16:42:00,
2013-03-19 12:47:00,28.9,16.4,29.98,West,259,20.2,27.0,59,0.00,,SCT032,0.01,VWS V14.01,2013-03-19 16:47:00,
2013-03-19 12:53:00,29.0,16.1,29.98,West,271,18.2,31.0,58,0.00,,SCT032,0.01,VWS V14.01,2013-03-19 16:53:00,
2013-03-19 12:58:00,28.8,15.5,29.98,WNW,290,16.2,31.0,57,0.00,,SCT032,0.01,VWS V14.01,2013-03-19 16:58:00,
2013-03-19 13:03:00,28.9,16.4,29.98,West,265,22.2,23.0,59,0.00,,BKN033,0.01,VWS V14.01,2013-03-19 17:03:00,
2013-03-19 13:08:00,28.9,16.0,29.98,West,261,16.2,27.0,58,0.00,,BKN033,0.01,VWS V14.01,2013-03-19 17:08:00,
2013-03-19 13:13:00,29.5,17.3,29.98,West,277,15.2,21.0,60,0.00,,BKN033,0.01,VWS V14.01,2013-03-19 17:13:00,
2013-03-19 13:18:00,29.8,17.2,29.99,West,264,22.2,36.0,59,0.00,,BKN033,0.01,VWS V14.01,2013-03-19 17:18:00,
2013-03-19 13:23:00,29.6,17.0,29.99,West,260,15.2,27.0,59,0.00,,BKN033,0.01,VWS V14.01,2013-03-19 17:23:00,
2013-03-19 13:28:00,29.6,17.8,30.00,West,263,15.2,27.0,61,0.00,,BKN033,0.01,VWS V14.01,2013-03-19 17:28:00,
2013-03-19 13:33:00,30.0,16.2,29.99,West,278,15.2,27.0,56,0.00,,BKN033,0.01,VWS V14.01,2013-03-19 17:33:00,
2013-03-19 13:38:00,29.5,16.6,30.00,West,272,23.2,29.0,58,0.00,,BKN033,0.01,VWS V14.01,2013-03-19 17:38:00,
2013-03-19 13:43:00,30.3,17.7,30.00,West,281,19.2,27.0,59,0.00,,BKN033,0.01,VWS V14.01,2013-03-19 17:43:00,
2013-03-19 13:48:00,30.1,16.7,30.01,West,270,19.2,28.0,57,0.00,,BKN033,0.01,VWS V14.01,2013-03-19 17:48:00,
2013-03-19 13:53:00,30.5,17.9,30.01,WSW,253,22.2,27.0,59,0.00,,BKN033,0.01,VWS V14.01,2013-03-19 17:53:00,
2013-03-19 13:58:00,31.0,17.2,30.01,West,269,17.2,27.0,56,0.00,,BKN033,0.01,VWS V14.01,2013-03-19 17:58:00,
2013-03-19 14:03:00,31.3,17.9,30.01,West,273,14.2,22.0,57,0.00,,SCT036,0.01,VWS V14.01,2013-03-19 18:03:00,
2013-03-19 14:08:00,31.3,17.9,30.01,West,271,15.2,27.0,57,0.00,,SCT036,0.01,VWS V14.01,2013-03-19 18:08:00,
2013-03-19 14:13:00,31.3,18.2,30.02,West,273,13.2,24.0,58,0.00,,SCT036,0.01,VWS V14.01,2013-03-19 18:13:00,
2013-03-19 14:18:00,31.2,17.8,30.01,West,259,14.2,36.0,57,0.00,,SCT036,0.01,VWS V14.01,2013-03-19 18:18:00,
2013-03-19 14:23:00,31.4,18.4,30.02,West,265,16.2,29.0,58,0.00,,SCT036,0.01,VWS V14.01,2013-03-19 18:23:00,
2013-03-19 14:28:00,31.8,18.3,30.02,WNW,284,13.2,29.0,57,0.00,,SCT036,0.01,VWS V14.01,2013-03-19 18:28:00,
2013-03-19 14:33:00,31.3,17.4,30.02,West,273,24.2,25.0,56,0.00,,SCT036,0.01,VWS V14.01,2013-03-19 18:33:00,
2013-03-19 14:38:00,31.5,17.2,30.00,West,264,26.2,31.0,55,0.00,,SCT036,0.01,VWS V14.01,2013-03-19 18:38:00,
2013-03-19 14:43:00,31.3,17.4,30.01,West,279,20.2,26.0,56,0.00,,SCT036,0.01,VWS V14.01,2013-03-19 18:43:00,
2013-03-19 14:48:00,31.3,17.4,30.01,WNW,284,18.2,33.0,56,0.00,,SCT036,0.01,VWS V14.01,2013-03-19 18:48:00,
2013-03-19 14:53:00,31.7,18.6,30.01,WNW,286,11.2,20.0,58,0.00,,SCT036,0.01,VWS V14.01,2013-03-19 18:53:00,
2013-03-19 14:58:00,32.2,17.9,30.01,West,275,15.2,27.0,55,0.00,,SCT036,0.01,VWS V14.01,2013-03-19 18:58:00,
2013-03-19 15:03:00,32.4,18.9,30.01,West,267,17.2,24.0,57,0.00,,BKN036,0.01,VWS V14.01,2013-03-19 19:03:00,
2013-03-19 15:08:00,32.4,18.9,30.01,West,275,23.2,27.0,57,0.00,,BKN036,0.01,VWS V14.01,2013-03-19 19:08:00,
2013-03-19 15:13:00,32.6,18.7,30.01,West,263,25.2,33.0,56,0.00,,BKN036,0.01,VWS V14.01,2013-03-19 19:13:00,
2013-03-19 15:18:00,33.0,18.6,30.01,West,273,13.2,33.0,55,0.00,,BKN036,0.01,VWS V14.01,2013-03-19 19:18:00,
2013-03-19 15:23:00,32.9,17.7,30.01,West,281,17.2,26.0,53,0.00,,BKN036,0.01,VWS V14.01,2013-03-19 19:23:00,
2013-03-19 15:29:00,33.6,19.2,30.01,West,273,19.2,32.0,55,0.00,,BKN036,0.01,VWS V14.01,2013-03-19 19:29:00,
2013-03-19 15:34:00,33.6,18.3,30.01,West,269,20.2,25.0,53,0.00,,BKN036,0.01,VWS V14.01,2013-03-19 19:34:00,
2013-03-19 15:39:00,33.8,19.8,30.01,WSW,256,22.2,30.0,56,0.00,,BKN036,0.01,VWS V14.01,2013-03-19 19:39:00,
2013-03-19 15:44:00,34.0,18.2,30.01,West,271,23.2,23.2,52,0.00,,BKN036,0.01,VWS V14.01,2013-03-19 19:44:00,
2013-03-19 15:49:00,34.3,19.4,30.00,West,261,18.2,31.0,54,0.00,,BKN036,0.01,VWS V14.01,2013-03-19 19:49:00,
2013-03-19 15:54:00,34.4,20.3,30.02,WNW,287,18.2,28.0,56,0.00,,BKN036,0.01,VWS V14.01,2013-03-19 19:54:00,
2013-03-19 15:59:00,34.6,19.2,30.01,WNW,296,11.2,28.0,53,0.00,,BKN036,0.01,VWS V14.01,2013-03-19 19:59:00,
2013-03-19 16:04:00,34.8,19.4,30.01,West,269,25.2,25.2,53,0.00,,FEW039,0.01,VWS V14.01,2013-03-19 20:04:00,
2013-03-19 16:09:00,34.6,19.7,30.02,West,269,17.2,29.0,54,0.00,,FEW039,0.01,VWS V14.01,2013-03-19 20:09:00,
2013-03-19 16:14:00,34.7,19.3,30.01,WNW,286,21.2,29.0,53,0.00,,FEW039,0.01,VWS V14.01,2013-03-19 20:14:00,
2013-03-19 16:19:00,34.7,18.9,30.02,West,265,27.2,29.0,52,0.00,,FEW039,0.01,VWS V14.01,2013-03-19 20:19:00,
2013-03-19 16:24:00,35.0,19.6,30.02,West,281,13.2,24.0,53,0.00,,FEW039,0.01,VWS V14.01,2013-03-19 20:24:00,
2013-03-19 16:29:00,35.4,20.0,30.02,West,279,22.2,29.0,53,0.00,,FEW039,0.01,VWS V14.01,2013-03-19 20:29:00,
2013-03-19 16:34:00,35.6,19.7,30.02,West,277,16.2,26.0,52,0.00,,FEW039,0.01,VWS V14.01,2013-03-19 20:34:00,
2013-03-19 16:39:00,35.4,19.1,30.03,WNW,283,18.2,28.0,51,0.00,,FEW039,0.01,VWS V14.01,2013-03-19 20:39:00,
2013-03-19 16:44:00,35.7,19.8,30.02,West,273,22.2,30.0,52,0.00,,FEW039,0.01,VWS V14.01,2013-03-19 20:44:00,
2013-03-19 16:49:00,35.7,19.4,30.02,West,273,18.2,32.0,51,0.00,,FEW039,0.01,VWS V14.01,2013-03-19 20:49:00,
2013-03-19 16:54:00,35.5,18.2,30.03,West,279,17.2,25.0,49,0.00,,FEW039,0.01,VWS V14.01,2013-03-19 20:54:00,
2013-03-19 16:59:00,35.7,18.9,30.03,West,272,18.2,25.0,50,0.00,,FEW039,0.01,VWS V14.01,2013-03-19 20:59:00,
2013-03-19 17:04:00,35.8,19.5,30.03,West,264,19.2,27.0,51,0.00,,CLR,0.01,VWS V14.01,2013-03-19 21:04:00,
2013-03-19 17:09:00,36.1,19.3,30.03,West,269,17.2,27.0,50,0.00,,CLR,0.01,VWS V14.01,2013-03-19 21:09:00,
2013-03-19 17:14:00,36.1,18.8,30.03,West,267,15.2,26.0,49,0.00,,CLR,0.01,VWS V14.01,2013-03-19 21:14:00,
2013-03-19 17:19:00,36.3,19.5,30.03,WSW,251,27.2,27.2,50,0.00,,CLR,0.01,VWS V14.01,2013-03-19 21:19:00,
2013-03-19 17:24:00,36.4,17.6,30.03,WSW,249,25.2,25.2,46,0.00,,CLR,0.01,VWS V14.01,2013-03-19 21:24:00,
2013-03-19 17:29:00,36.3,18.5,30.03,West,263,14.2,30.0,48,0.00,,CLR,0.01,VWS V14.01,2013-03-19 21:29:00,
2013-03-19 17:34:00,36.5,18.7,30.04,WNW,297,22.2,22.2,48,0.00,,CLR,0.01,VWS V14.01,2013-03-19 21:34:00,
2013-03-19 17:39:00,36.4,18.1,30.03,West,269,16.2,22.0,47,0.00,,CLR,0.01,VWS V14.01,2013-03-19 21:39:00,
2013-03-19 17:44:00,36.3,19.0,30.03,West,277,18.2,25.0,49,0.00,,CLR,0.01,VWS V14.01,2013-03-19 21:44:00,
2013-03-19 17:49:00,36.4,19.1,30.03,WNW,287,12.2,25.0,49,0.00,,CLR,0.01,VWS V14.01,2013-03-19 21:49:00,
2013-03-19 17:54:00,36.7,18.9,30.04,WSW,258,18.2,22.0,48,0.00,,CLR,0.01,VWS V14.01,2013-03-19 21:54:00,
2013-03-19 17:59:00,36.7,16.9,30.05,West,279,14.2,23.0,44,0.00,,CLR,0.01,VWS V14.01,2013-03-19 21:59:00,
2013-03-19 18:04:00,36.5,17.2,30.04,WNW,302,19.2,20.0,45,0.00,,CLR,0.01,VWS V14.01,2013-03-19 22:04:00,
2013-03-19 18:09:00,36.6,17.8,30.04,West,270,10.2,20.0,46,0.00,,CLR,0.01,VWS V14.01,2013-03-19 22:09:00,
2013-03-19 18:14:00,36.7,18.9,30.04,West,263,17.2,21.0,48,0.00,,CLR,0.01,VWS V14.01,2013-03-19 22:14:00,
2013-03-19 18:19:00,36.7,19.4,30.05,West,263,26.2,26.2,49,0.00,,CLR,0.01,VWS V14.01,2013-03-19 22:19:00,
2013-03-19 18:24:00,36.5,17.2,30.05,WNW,300,10.2,25.0,45,0.00,,CLR,0.01,VWS V14.01,2013-03-19 22:24:00,
2013-03-19 18:29:00,36.5,17.2,30.05,WNW,292,19.2,25.0,45,0.00,,CLR,0.01,VWS V14.01,2013-03-19 22:29:00,
2013-03-19 18:34:00,36.5,18.7,30.05,West,264,20.2,22.0,48,0.00,,CLR,0.01,VWS V14.01,2013-03-19 22:34:00,
2013-03-19 18:39:00,36.5,18.2,30.05,WNW,286,19.2,22.0,47,0.00,,CLR,0.01,VWS V14.01,2013-03-19 22:39:00,
2013-03-19 18:44:00,36.4,18.1,30.05,WNW,284,20.2,23.0,47,0.00,,CLR,0.01,VWS V14.01,2013-03-19 22:44:00,
2013-03-19 18:49:00,36.3,18.5,30.05,NW,305,13.2,26.0,48,0.00,,CLR,0.01,VWS V14.01,2013-03-19 22:49:00,
2013-03-19 18:54:00,36.2,18.9,30.06,West,279,19.2,20.0,49,0.00,,CLR,0.01,VWS V14.01,2013-03-19 22:54:00,
2013-03-19 18:59:00,36.1,18.3,30.05,West,270,13.2,25.0,48,0.00,,CLR,0.01,VWS V14.01,2013-03-19 22:59:00,
2013-03-19 19:04:00,35.9,18.6,30.05,West,276,14.2,21.0,49,0.00,,CLR,0.01,VWS V14.01,2013-03-19 23:04:00,
2013-03-19 19:09:00,35.8,18.5,30.06,WNW,282,14.2,22.0,49,0.00,,CLR,0.01,VWS V14.01,2013-03-19 23:09:00,
2013-03-19 19:15:00,35.7,18.9,30.06,WNW,290,10.2,19.0,50,0.00,,CLR,0.01,VWS V14.01,2013-03-19 23:15:00,
2013-03-19 19:19:00,35.6,16.9,30.06,West,279,18.2,23.0,46,0.00,,CLR,0.01,VWS V14.01,2013-03-19 23:19:00,
2013-03-19 19:25:00,35.3,16.6,30.06,West,268,14.2,17.0,46,0.00,,CLR,0.01,VWS V14.01,2013-03-19 23:25:00,
2013-03-19 19:30:00,35.1,17.4,30.05,West,278,18.2,18.2,48,0.00,,CLR,0.01,VWS V14.01,2013-03-19 23:30:00,
2013-03-19 19:35:00,35.0,17.8,30.06,WNW,284,7.2,18.0,49,0.00,,CLR,0.01,VWS V14.01,2013-03-19 23:35:00,
2013-03-19 19:40:00,35.0,18.7,30.06,West,261,8.2,18.0,51,0.00,,CLR,0.01,VWS V14.01,2013-03-19 23:40:00,
2013-03-19 19:45:00,34.8,19.0,30.06,West,273,11.2,18.0,52,0.00,,CLR,0.01,VWS V14.01,2013-03-19 23:45:00,
2013-03-19 19:50:00,34.6,18.3,30.06,West,279,9.2,18.0,51,0.00,,CLR,0.01,VWS V14.01,2013-03-19 23:50:00,
2013-03-19 19:55:00,34.4,17.7,30.06,West,280,8.2,15.0,50,0.00,,CLR,0.01,VWS V14.01,2013-03-19 23:55:00,
2013-03-19 20:00:00,34.2,17.5,30.06,West,261,16.2,18.0,50,0.00,,CLR,0.01,VWS V14.01,2013-03-20 00:00:00,
2013-03-19 20:05:00,34.1,17.4,30.06,West,271,12.2,19.0,50,0.00,,CLR,0.01,VWS V14.01,2013-03-20 00:05:00,
2013-03-19 20:10:00,34.1,17.9,30.06,West,265,13.2,19.0,51,0.00,,CLR,0.01,VWS V14.01,2013-03-20 00:10:00,
2013-03-19 20:15:00,34.0,18.2,30.06,WNW,282,11.2,19.0,52,0.00,,CLR,0.01,VWS V14.01,2013-03-20 00:15:00,
2013-03-19 20:20:00,33.9,18.6,30.06,West,268,7.2,19.0,53,0.00,,CLR,0.01,VWS V14.01,2013-03-20 00:20:00,
2013-03-19 20:25:00,33.7,18.8,30.07,West,267,11.2,12.0,54,0.00,,CLR,0.01,VWS V14.01,2013-03-20 00:25:00,
2013-03-19 20:30:00,33.6,19.2,30.07,West,268,10.2,15.0,55,0.00,,CLR,0.01,VWS V14.01,2013-03-20 00:30:00,
2013-03-19 20:35:00,33.6,18.3,30.07,West,268,10.2,17.0,53,0.00,,CLR,0.01,VWS V14.01,2013-03-20 00:35:00,
2013-03-19 20:40:00,33.6,18.3,30.07,West,273,12.2,19.0,53,0.00,,CLR,0.01,VWS V14.01,2013-03-20 00:40:00,
2013-03-19 20:45:00,33.6,17.9,30.08,West,281,14.2,18.0,52,0.00,,CLR,0.01,VWS V14.01,2013-03-20 00:45:00,
2013-03-19 20:50:00,33.6,18.3,30.08,West,271,14.2,18.0,53,0.00,,CLR,0.01,VWS V14.01,2013-03-20 00:50:00,
2013-03-19 20:55:00,33.6,17.9,30.08,West,273,14.2,20.0,52,0.00,,CLR,0.01,VWS V14.01,2013-03-20 00:55:00,
2013-03-19 21:00:00,33.5,18.2,30.08,West,273,8.2,20.0,53,0.00,,CLR,0.01,VWS V14.01,2013-03-20 01:00:00,
2013-03-19 21:05:00,33.3,18.5,30.08,West,271,11.2,14.0,54,0.00,,CLR,0.01,VWS V14.01,2013-03-20 01:05:00,
2013-03-19 21:10:00,33.2,18.8,30.08,West,275,11.2,16.0,55,0.00,,CLR,0.01,VWS V14.01,2013-03-20 01:10:00,
2013-03-19 21:15:00,33.1,18.7,30.08,West,269,13.2,15.0,55,0.00,,CLR,0.01,VWS V14.01,2013-03-20 01:15:00,
2013-03-19 21:20:00,33.0,18.6,30.09,West,275,7.2,16.0,55,0.00,,CLR,0.01,VWS V14.01,2013-03-20 01:20:00,
2013-03-19 21:25:00,33.0,19.0,30.09,West,269,15.2,15.2,56,0.00,,CLR,0.01,VWS V14.01,2013-03-20 01:25:00,
2013-03-19 21:30:00,32.9,18.5,30.09,West,271,11.2,16.0,55,0.00,,CLR,0.01,VWS V14.01,2013-03-20 01:30:00,
2013-03-19 21:35:00,32.8,18.8,30.09,West,275,11.2,14.0,56,0.00,,CLR,0.01,VWS V14.01,2013-03-20 01:35:00,
2013-03-19 21:40:00,32.8,18.8,30.09,West,276,6.2,14.0,56,0.00,,CLR,0.01,VWS V14.01,2013-03-20 01:40:00,
2013-03-19 21:45:00,32.7,18.8,30.09,West,264,6.2,15.0,56,0.00,,CLR,0.01,VWS V14.01,2013-03-20 01:45:00,
2013-03-19 21:50:00,32.6,18.7,30.09,West,260,11.2,15.0,56,0.00,,CLR,0.01,VWS V14.01,2013-03-20 01:50:00,
2013-03-19 21:55:00,32.5,19.0,30.09,West,280,12.2,14.0,57,0.00,,CLR,0.01,VWS V14.01,2013-03-20 01:55:00,
2013-03-19 22:00:00,32.3,18.4,30.09,West,262,10.2,14.0,56,0.00,,CLR,0.01,VWS V14.01,2013-03-20 02:00:00,
2013-03-19 22:05:00,32.3,18.8,30.09,West,267,9.2,13.0,57,0.00,,CLR,0.01,VWS V14.01,2013-03-20 02:05:00,
2013-03-19 22:10:00,32.1,18.6,30.09,West,259,6.2,15.0,57,0.00,,CLR,0.01,VWS V14.01,2013-03-20 02:10:00,
2013-03-19 22:15:00,32.1,18.6,30.09,West,277,13.2,14.0,57,0.00,,CLR,0.01,VWS V14.01,2013-03-20 02:15:00,
2013-03-19 22:20:00,32.1,18.6,30.09,West,275,5.2,17.0,57,0.00,,CLR,0.01,VWS V14.01,2013-03-20 02:20:00,
2013-03-19 22:25:00,32.1,18.2,30.09,West,269,9.2,13.0,56,0.00,,CLR,0.01,VWS V14.01,2013-03-20 02:25:00,
2013-03-19 22:30:00,32.1,18.6,30.09,West,271,10.2,14.0,57,0.00,,CLR,0.01,VWS V14.01,2013-03-20 02:30:00,
2013-03-19 22:35:00,32.0,18.5,30.09,West,273,8.2,13.0,57,0.00,,CLR,0.01,VWS V14.01,2013-03-20 02:35:00,
2013-03-19 22:40:00,31.9,18.4,30.09,West,266,7.2,13.0,57,0.00,,CLR,0.01,VWS V14.01,2013-03-20 02:40:00,
2013-03-19 22:45:00,31.8,18.7,30.09,West,276,6.2,14.0,58,0.00,,CLR,0.01,VWS V14.01,2013-03-20 02:45:00,
2013-03-19 22:50:00,31.8,18.7,30.09,West,276,11.2,16.0,58,0.00,,CLR,0.01,VWS V14.01,2013-03-20 02:50:00,
2013-03-19 22:55:00,31.7,18.6,30.10,West,268,9.2,17.0,58,0.00,,CLR,0.01,VWS V14.01,2013-03-20 02:55:00,
2013-03-19 23:00:00,31.6,18.9,30.09,West,275,10.2,17.0,59,0.00,,CLR,0.01,VWS V14.01,2013-03-20 03:00:00,
2013-03-19 23:05:00,31.6,18.9,30.09,West,281,9.2,15.0,59,0.00,,CLR,0.01,VWS V14.01,2013-03-20 03:05:00,
2013-03-19 23:10:00,31.6,18.9,30.09,West,267,11.2,16.0,59,0.00,,CLR,0.01,VWS V14.01,2013-03-20 03:10:00,
2013-03-19 23:15:00,31.6,18.5,30.09,West,276,7.2,16.0,58,0.00,,CLR,0.01,VWS V14.01,2013-03-20 03:15:00,
2013-03-19 23:20:00,31.6,18.1,30.09,West,280,9.2,17.0,57,0.00,,CLR,0.01,VWS V14.01,2013-03-20 03:20:00,
2013-03-19 23:25:00,31.5,18.4,30.09,West,273,15.2,21.0,58,0.00,,CLR,0.01,VWS V14.01,2013-03-20 03:25:00,
2013-03-19 23:30:00,31.5,18.0,30.09,West,271,7.2,21.0,57,0.00,,CLR,0.01,VWS V14.01,2013-03-20 03:30:00,
2013-03-19 23:35:00,31.5,18.0,30.09,WNW,287,12.2,18.0,57,0.00,,CLR,0.01,VWS V14.01,2013-03-20 03:35:00,
2013-03-19 23:40:00,31.5,17.6,30.09,West,271,12.2,18.0,56,0.00,,CLR,0.01,VWS V14.01,2013-03-20 03:40:00,
2013-03-19 23:45:00,31.5,17.2,30.09,West,280,6.2,20.0,55,0.00,,CLR,0.01,VWS V14.01,2013-03-20 03:45:00,
2013-03-19 23:50:00,31.4,17.1,30.09,WNW,284,10.2,20.0,55,0.00,,CLR,0.01,VWS V14.01,2013-03-20 03:50:00,
2013-03-19 23:55:00,31.3,16.6,30.09,WNW,290,13.2,15.0,54,0.00,,CLR,0.01,VWS V14.01,2013-03-20 03:55:00,